Time;durP1;ratioP1;P1;durP2;ratioP2;P2;SDS_P1;SDS_P2;PMS_P1;PMS_P2;Temp;Humidity;BMP_temperature;BMP_pressure;BME280_temperature;BME280_humidity;BME280_pressure;Samples;Min_cycle;Max_cycle;Signal;HPM_P1;HPM_P2
2023/02/05 00:02:17;;;;;;;8.98;5.82;;;;;;;;;;5063503;28;20151;-52
2023/02/05 00:04:43;;;;;;;8.77;5.57;;;;;;;;;;5063204;28;20414;-49
2023/02/05 00:07:09;;;;;;;6.07;4.35;;;;;;;;;;5064818;28;20021;-51
2023/02/05 00:09:39;;;;;;;7.78;5.13;;;;;;;;;;5051022;28;20032;-49
2023/02/05 00:12:05;;;;;;;7.45;4.97;;;;;;;;;;5045079;28;20048;-50
2023/02/05 00:14:31;;;;;;;8.05;5.10;;;;;;;;;;5044291;28;20040;-48
2023/02/05 00:16:57;;;;;;;6.75;4.70;;;;;;;;;;5044305;28;20384;-47
2023/02/05 00:19:23;;;;;;;7.57;5.68;;;;;;;;;;5043927;28;20112;-51
2023/02/05 00:21:49;;;;;;;6.25;4.47;;;;;;;;;;5045715;28;20104;-48
2023/02/05 00:24:15;;;;;;;7.57;5.00;;;;;;;;;;5046135;28;20472;-51
2023/02/05 00:26:42;;;;;;;7.25;4.95;;;;;;;;;;5046756;28;20048;-49
2023/02/05 00:29:08;;;;;;;7.03;4.57;;;;;;;;;;5050203;28;20122;-49
2023/02/05 00:31:34;;;;;;;4.95;3.97;;;;;;;;;;5048782;28;20033;-48
2023/02/05 00:34:00;;;;;;;4.43;3.33;;;;;;;;;;5047547;28;20029;-48
2023/02/05 00:36:26;;;;;;;5.30;3.67;;;;;;;;;;5046110;28;21037;-49
2023/02/05 00:38:52;;;;;;;4.75;3.35;;;;;;;;;;5027896;28;20033;-49
2023/02/05 00:41:18;;;;;;;4.63;3.60;;;;;;;;;;5028028;28;20116;-50
2023/02/05 00:43:44;;;;;;;4.20;3.42;;;;;;;;;;5027507;28;20037;-47
2023/02/05 00:46:12;;;;;;;4.28;3.20;;;;;;;;;;5027825;28;20064;-49
2023/02/05 00:48:38;;;;;;;4.45;2.88;;;;;;;;;;5029468;28;20116;-52
2023/02/05 00:51:04;;;;;;;4.90;3.50;;;;;;;;;;5048256;28;20021;-49
2023/02/05 00:53:30;;;;;;;8.07;2.97;;;;;;;;;;5047331;28;20436;-48
2023/02/05 00:55:57;;;;;;;3.83;3.20;;;;;;;;;;5047424;28;20067;-50
2023/02/05 00:58:23;;;;;;;4.43;3.40;;;;;;;;;;5047207;28;20143;-50
2023/02/05 01:00:50;;;;;;;4.75;3.60;;;;;;;;;;5047262;28;20548;-49
2023/02/05 01:03:16;;;;;;;4.80;3.40;;;;;;;;;;5046880;28;20064;-50
2023/02/05 06:13:42;;;;;;;5.13;3.10;;;;;;;;;;5041694;28;20139;-49
2023/02/05 06:16:09;;;;;;;4.63;2.83;;;;;;;;;;5047417;28;20075;-47
2023/02/05 06:18:35;;;;;;;3.63;2.50;;;;;;;;;;5047778;28;20036;-50
2023/02/05 06:21:04;;;;;;;3.17;2.40;;;;;;;;;;5047596;28;20559;-49
2023/02/05 06:23:30;;;;;;;3.47;2.65;;;;;;;;;;5046789;28;20834;-48
2023/02/05 06:25:56;;;;;;;2.72;2.15;;;;;;;;;;5047353;28;20104;-48
2023/02/05 06:28:22;;;;;;;4.32;3.00;;;;;;;;;;5047627;28;20100;-48
2023/02/05 06:30:48;;;;;;;4.65;2.67;;;;;;;;;;5047386;28;20447;-49
2023/02/05 06:33:14;;;;;;;4.30;2.78;;;;;;;;;;5045989;28;20078;-47
2023/02/05 06:35:40;;;;;;;3.45;2.72;;;;;;;;;;5045835;28;20389;-48
2023/02/05 06:38:06;;;;;;;3.42;2.60;;;;;;;;;;5047663;28;20052;-49
2023/02/05 06:40:33;;;;;;;4.22;2.72;;;;;;;;;;5047119;28;20037;-48
2023/02/05 06:42:59;;;;;;;3.65;2.50;;;;;;;;;;5047010;28;20057;-49
2023/02/05 06:45:25;;;;;;;3.88;2.63;;;;;;;;;;5047159;28;20059;-50
2023/02/05 06:47:54;;;;;;;3.97;2.90;;;;;;;;;;5041836;28;20024;-49
2023/02/05 06:50:20;;;;;;;4.70;3.03;;;;;;;;;;5050570;28;20459;-47
2023/02/05 06:52:46;;;;;;;4.63;2.90;;;;;;;;;;5050404;28;20017;-47
2023/02/05 06:55:12;;;;;;;4.15;3.53;;;;;;;;;;5047693;28;20469;-48
2023/02/05 06:57:38;;;;;;;3.40;2.63;;;;;;;;;;5047763;28;20017;-48
2023/02/05 07:00:05;;;;;;;4.60;2.92;;;;;;;;;;5047529;28;20249;-48
2023/02/05 07:02:31;;;;;;;3.95;2.95;;;;;;;;;;5047489;28;20028;-49
2023/02/05 07:04:57;;;;;;;4.25;2.83;;;;;;;;;;5047269;28;20025;-48
2023/02/05 07:07:23;;;;;;;5.63;3.83;;;;;;;;;;5047581;28;20017;-48
2023/02/05 07:09:49;;;;;;;3.20;2.80;;;;;;;;;;5047083;28;20029;-47
2023/02/05 07:12:15;;;;;;;4.82;3.60;;;;;;;;;;5052117;28;20060;-48
2023/02/05 07:14:41;;;;;;;4.63;3.33;;;;;;;;;;5055776;28;20051;-48
2023/02/05 07:17:08;;;;;;;3.70;3.03;;;;;;;;;;5048391;28;20025;-48
2023/02/05 07:19:35;;;;;;;4.53;3.50;;;;;;;;;;5029210;28;20612;-49
2023/02/05 07:22:01;;;;;;;4.45;3.40;;;;;;;;;;5028474;28;20545;-48
2023/02/05 07:24:27;;;;;;;5.22;3.55;;;;;;;;;;5028267;28;20514;-51
2023/02/05 07:26:53;;;;;;;4.53;3.58;;;;;;;;;;5034404;28;20692;-50
2023/02/05 07:29:19;;;;;;;5.80;3.88;;;;;;;;;;5054052;28;20025;-52
2023/02/05 07:31:45;;;;;;;4.68;3.58;;;;;;;;;;5048205;28;20488;-51
2023/02/05 07:34:11;;;;;;;5.30;3.75;;;;;;;;;;5054888;28;20044;-48
2023/02/05 07:36:37;;;;;;;6.28;4.00;;;;;;;;;;5052502;28;20120;-51
2023/02/05 07:39:03;;;;;;;3.67;2.92;;;;;;;;;;5053460;28;20021;-52
2023/02/05 07:41:29;;;;;;;5.25;3.65;;;;;;;;;;5072221;28;20025;-50
2023/02/05 07:43:55;;;;;;;4.85;3.72;;;;;;;;;;5072374;28;20034;-51
2023/02/05 07:46:22;;;;;;;4.75;3.53;;;;;;;;;;5064224;28;20443;-48
2023/02/05 07:48:48;;;;;;;4.70;3.67;;;;;;;;;;5052178;28;20041;-52
2023/02/05 07:51:18;;;;;;;4.30;3.50;;;;;;;;;;5050758;28;20104;-49
2023/02/05 07:53:44;;;;;;;6.65;3.60;;;;;;;;;;5050511;28;20029;-50
2023/02/05 07:56:10;;;;;;;6.32;3.70;;;;;;;;;;5052187;28;20541;-49
2023/02/05 07:58:37;;;;;;;5.38;3.72;;;;;;;;;;5070612;28;20555;-50
2023/02/05 08:01:04;;;;;;;4.55;3.47;;;;;;;;;;5069047;28;20028;-49
2023/02/05 08:03:31;;;;;;;4.85;3.38;;;;;;;;;;5070609;28;20059;-47
2023/02/05 08:05:58;;;;;;;6.03;4.00;;;;;;;;;;5063315;28;20025;-50
2023/02/05 08:08:24;;;;;;;5.18;3.80;;;;;;;;;;5063229;28;20032;-49
2023/02/05 08:11:17;;;;;;;5.43;3.67;;;;;;;;;;5070380;28;20021;-49
2023/02/05 08:13:43;;;;;;;5.50;3.30;;;;;;;;;;5067181;28;20052;-48
2023/02/05 08:16:10;;;;;;;5.13;3.78;;;;;;;;;;5070137;28;20031;-50
2023/02/05 08:18:36;;;;;;;5.13;3.63;;;;;;;;;;5070139;28;20438;-47
2023/02/05 08:21:02;;;;;;;5.40;3.75;;;;;;;;;;5070245;28;20028;-50
2023/02/05 08:23:28;;;;;;;6.57;3.92;;;;;;;;;;5050843;28;20033;-47
2023/02/05 08:25:54;;;;;;;5.22;3.45;;;;;;;;;;5049014;28;20047;-47
2023/02/05 08:28:21;;;;;;;4.82;3.60;;;;;;;;;;5049620;28;20025;-48
2023/02/05 08:30:47;;;;;;;4.78;3.65;;;;;;;;;;5064962;28;20020;-48
2023/02/05 08:33:13;;;;;;;4.68;3.58;;;;;;;;;;5053547;28;20388;-49
2023/02/05 08:35:39;;;;;;;4.68;3.15;;;;;;;;;;5057164;28;20047;-47
2023/02/05 08:38:06;;;;;;;5.28;3.60;;;;;;;;;;5039553;28;20029;-49
2023/02/05 08:40:32;;;;;;;4.90;3.40;;;;;;;;;;5052977;28;20033;-49
2023/02/05 08:42:59;;;;;;;5.97;3.50;;;;;;;;;;5050668;28;20029;-48
2023/02/05 08:45:25;;;;;;;5.97;3.60;;;;;;;;;;5050650;28;20017;-48
2023/02/05 08:47:51;;;;;;;4.18;3.30;;;;;;;;;;5051015;28;20032;-50
2023/02/05 08:50:18;;;;;;;5.63;3.80;;;;;;;;;;5050597;28;20029;-49
2023/02/05 08:52:44;;;;;;;5.03;3.42;;;;;;;;;;5050630;28;20033;-48
2023/02/05 08:55:10;;;;;;;4.90;3.47;;;;;;;;;;5049879;28;20017;-48
2023/02/05 08:57:36;;;;;;;4.40;3.10;;;;;;;;;;5044520;28;20130;-49
2023/02/05 09:00:03;;;;;;;3.83;2.67;;;;;;;;;;5050521;28;20033;-52
2023/02/05 09:02:29;;;;;;;3.42;2.95;;;;;;;;;;5055433;28;20381;-47
2023/02/05 09:04:55;;;;;;;4.30;3.22;;;;;;;;;;5061545;28;20037;-51
2023/02/05 09:07:21;;;;;;;3.92;3.13;;;;;;;;;;5050560;28;20457;-47
2023/02/05 09:09:48;;;;;;;4.75;3.63;;;;;;;;;;5050831;28;20032;-48
2023/02/05 09:12:14;;;;;;;4.05;3.22;;;;;;;;;;5050494;28;20032;-51
2023/02/05 09:14:41;;;;;;;4.40;2.80;;;;;;;;;;5050313;28;20037;-50
2023/02/05 09:17:08;;;;;;;4.00;2.83;;;;;;;;;;5044286;28;20068;-52
2023/02/05 09:19:37;;;;;;;4.35;2.95;;;;;;;;;;5067347;28;20401;-49
2023/02/05 09:22:04;;;;;;;3.78;2.90;;;;;;;;;;5047648;28;20075;-48
2023/02/05 09:24:31;;;;;;;6.60;2.95;;;;;;;;;;5043813;28;20124;-48
2023/02/05 09:26:57;;;;;;;6.03;3.25;;;;;;;;;;5058092;28;20411;-48
2023/02/05 09:29:22;;;;;;;4.78;3.15;;;;;;;;;;5068438;28;20028;-51
2023/02/05 09:31:48;;;;;;;4.88;3.55;;;;;;;;;;5057185;28;20032;-49
2023/02/05 09:34:15;;;;;;;4.20;3.17;;;;;;;;;;5050751;28;20025;-48
2023/02/05 09:36:43;;;;;;;4.20;3.20;;;;;;;;;;5040928;28;20032;-49
2023/02/05 09:39:10;;;;;;;4.68;3.20;;;;;;;;;;5049430;28;20029;-51
2023/02/05 09:41:41;;;;;;;4.47;2.80;;;;;;;;;;5041875;28;20033;-49
2023/02/05 09:44:10;;;;;;;3.95;2.78;;;;;;;;;;5068215;28;20033;-47
2023/02/05 09:46:43;;;;;;;3.72;2.85;;;;;;;;;;5069700;28;20025;-49
2023/02/05 09:49:21;;;;;;;3.47;2.57;;;;;;;;;;5065676;28;20051;-51
2023/02/05 09:51:49;;;;;;;3.78;2.78;;;;;;;;;;5049742;28;20259;-49
2023/02/05 09:54:18;;;;;;;4.47;2.78;;;;;;;;;;5050084;28;20025;-48
2023/02/05 09:56:45;;;;;;;4.30;2.50;;;;;;;;;;5048821;28;20057;-51
2023/02/05 09:59:19;;;;;;;3.65;2.58;;;;;;;;;;5049233;28;20074;-48
2023/02/05 10:01:52;;;;;;;3.10;2.25;;;;;;;;;;5049390;28;20033;-48
2023/02/05 10:04:19;;;;;;;2.90;2.10;;;;;;;;;;5061348;28;20035;-49
2023/02/05 10:07:04;;;;;;;3.33;2.25;;;;;;;;;;5063786;28;20492;-50
2023/02/05 10:09:46;;;;;;;3.47;1.77;;;;;;;;;;5042943;28;20025;-49
2023/02/05 10:12:12;;;;;;;2.60;2.28;;;;;;;;;;5049331;28;20155;-52
2023/02/05 10:14:57;;;;;;;5.13;2.40;;;;;;;;;;5049239;28;20036;-49
2023/02/05 10:17:28;;;;;;;2.38;1.90;;;;;;;;;;5053649;28;20032;-52
2023/02/05 10:20:27;;;;;;;2.55;1.77;;;;;;;;;;5085861;28;20102;-47
2023/02/05 10:23:02;;;;;;;3.60;2.22;;;;;;;;;;5086642;28;20033;-47
2023/02/05 10:25:28;;;;;;;2.38;1.70;;;;;;;;;;5086096;28;20028;-46
2023/02/05 10:28:17;;;;;;;4.18;2.35;;;;;;;;;;5086194;28;20100;-45
2023/02/05 10:30:46;;;;;;;2.90;2.15;;;;;;;;;;5075131;28;20461;-50
2023/02/05 10:33:33;;;;;;;2.60;1.90;;;;;;;;;;5084650;28;20028;-47
2023/02/05 10:36:01;;;;;;;3.92;2.20;;;;;;;;;;5085544;28;20036;-47
2023/02/05 10:38:30;;;;;;;7.25;2.80;;;;;;;;;;5084346;28;20051;-49
2023/02/05 10:40:58;;;;;;;3.45;2.28;;;;;;;;;;5084349;28;20028;-46
2023/02/05 10:43:29;;;;;;;3.40;2.00;;;;;;;;;;5085659;28;20607;-50
2023/02/05 10:45:56;;;;;;;4.57;2.35;;;;;;;;;;5086090;28;20442;-48
2023/02/05 10:48:36;;;;;;;3.40;1.90;;;;;;;;;;5083749;28;20067;-48
2023/02/05 10:51:04;;;;;;;3.25;2.22;;;;;;;;;;5084140;28;20059;-48
2023/02/05 10:53:31;;;;;;;3.60;2.45;;;;;;;;;;5085507;28;20097;-47
2023/02/05 10:55:58;;;;;;;6.20;3.30;;;;;;;;;;5085878;28;20032;-50
2023/02/05 10:58:24;;;;;;;6.32;3.05;;;;;;;;;;5084134;28;20108;-50
2023/02/05 11:00:50;;;;;;;3.95;2.15;;;;;;;;;;5081576;28;20111;-45
2023/02/05 11:03:17;;;;;;;3.72;2.10;;;;;;;;;;5085214;28;20021;-46
2023/02/05 11:05:45;;;;;;;3.38;2.00;;;;;;;;;;5085278;28;20039;-48
2023/02/05 11:08:31;;;;;;;2.83;1.58;;;;;;;;;;5085053;28;20517;-50
2023/02/05 11:10:57;;;;;;;2.97;1.70;;;;;;;;;;5082809;28;20048;-51
2023/02/05 11:13:24;;;;;;;3.05;1.80;;;;;;;;;;5083338;28;20032;-52
2023/02/05 11:15:53;;;;;;;3.35;1.60;;;;;;;;;;5084925;28;20052;-46
2023/02/05 11:18:37;;;;;;;4.70;1.90;;;;;;;;;;5083977;28;20028;-48
2023/02/05 11:21:05;;;;;;;6.75;2.88;;;;;;;;;;5079907;28;20159;-46
2023/02/05 11:23:37;;;;;;;5.43;2.67;;;;;;;;;;5083741;28;20077;-47
2023/02/05 11:26:07;;;;;;;4.82;2.15;;;;;;;;;;5084618;28;20039;-48
2023/02/05 11:28:34;;;;;;;4.30;2.10;;;;;;;;;;5084816;28;20313;-47
2023/02/05 11:31:36;;;;;;;3.42;1.70;;;;;;;;;;5071877;28;20507;-47
2023/02/05 11:34:08;;;;;;;2.33;1.40;;;;;;;;;;5028908;28;20032;-47
2023/02/05 11:36:38;;;;;;;4.47;2.00;;;;;;;;;;5069848;28;20052;-47
2023/02/05 11:39:06;;;;;;;3.83;1.92;;;;;;;;;;5069668;28;20086;-50
2023/02/05 11:41:50;;;;;;;6.55;3.05;;;;;;;;;;5070031;28;20528;-49
2023/02/05 11:44:21;;;;;;;6.20;2.72;;;;;;;;;;5069851;28;20016;-47
2023/02/05 11:46:47;;;;;;;4.07;2.15;;;;;;;;;;5069648;28;20446;-52
2023/02/05 11:49:26;;;;;;;3.35;1.90;;;;;;;;;;5069175;28;20502;-49
2023/02/05 11:51:53;;;;;;;4.72;2.33;;;;;;;;;;5070450;28;20044;-52
2023/02/05 11:54:31;;;;;;;2.83;1.30;;;;;;;;;;5071094;28;20047;-49
2023/02/05 11:57:02;;;;;;;1.17;1.00;;;;;;;;;;5070281;28;20495;-49
2023/02/05 11:59:28;;;;;;;2.03;1.25;;;;;;;;;;5050589;28;20075;-49
2023/02/05 12:01:54;;;;;;;2.33;1.00;;;;;;;;;;5066746;28;20027;-50
2023/02/05 12:04:21;;;;;;;1.33;0.88;;;;;;;;;;5070055;28;20035;-51
2023/02/05 12:06:50;;;;;;;2.65;1.58;;;;;;;;;;5068396;28;20038;-52
2023/02/05 12:09:20;;;;;;;2.13;1.35;;;;;;;;;;5069202;28;20104;-49
2023/02/05 12:14:40;;;;;;;2.28;1.80;;;;;;;;;;5066188;28;20317;-51
2023/02/05 12:17:12;;;;;;;2.67;1.80;;;;;;;;;;5062463;28;20094;-53
2023/02/05 12:20:01;;;;;;;2.35;1.48;;;;;;;;;;5061937;28;20392;-49
2023/02/05 12:22:27;;;;;;;2.83;1.45;;;;;;;;;;5036303;28;20032;-52
2023/02/05 12:24:56;;;;;;;1.50;1.30;;;;;;;;;;5065240;28;20059;-49
2023/02/05 12:27:31;;;;;;;3.17;1.30;;;;;;;;;;5065906;28;20415;-50
2023/02/05 12:30:00;;;;;;;3.03;1.52;;;;;;;;;;5065379;28;20036;-48
2023/02/05 12:32:27;;;;;;;3.30;1.85;;;;;;;;;;5066108;28;20021;-52
2023/02/05 12:34:56;;;;;;;3.13;1.25;;;;;;;;;;5065237;28;20119;-53
2023/02/05 12:37:28;;;;;;;2.85;1.58;;;;;;;;;;5065734;28;20032;-52
2023/02/05 12:39:54;;;;;;;2.78;1.27;;;;;;;;;;5064899;28;20142;-51
2023/02/05 12:42:26;;;;;;;2.72;1.75;;;;;;;;;;5063777;28;20048;-51
2023/02/05 12:44:59;;;;;;;2.30;1.60;;;;;;;;;;5064972;28;20036;-50
2023/02/05 12:47:34;;;;;;;2.88;1.50;;;;;;;;;;5065074;28;20024;-49
2023/02/05 12:50:09;;;;;;;2.28;1.25;;;;;;;;;;5063224;28;20032;-52
2023/02/05 12:52:59;;;;;;;2.03;1.60;;;;;;;;;;5065320;28;20171;-48
2023/02/05 12:55:44;;;;;;;3.17;1.90;;;;;;;;;;5064964;28;20459;-50
2023/02/05 12:58:11;;;;;;;1.77;1.48;;;;;;;;;;5064931;28;20028;-49
2023/02/05 13:00:40;;;;;;;2.25;1.50;;;;;;;;;;5065121;28;20032;-50
2023/02/05 13:03:29;;;;;;;2.28;1.38;;;;;;;;;;5064996;28;20089;-51
2023/02/05 13:05:58;;;;;;;1.95;1.20;;;;;;;;;;5064915;28;20025;-50
2023/02/05 13:08:24;;;;;;;1.40;1.10;;;;;;;;;;5064656;28;20036;-49
2023/02/05 13:10:56;;;;;;;1.10;1.00;;;;;;;;;;5064105;28;20033;-50
2023/02/05 13:13:24;;;;;;;1.45;1.20;;;;;;;;;;5064939;28;20108;-52
2023/02/05 13:15:56;;;;;;;1.70;1.40;;;;;;;;;;5063984;28;20051;-50
2023/02/05 13:18:25;;;;;;;1.13;1.02;;;;;;;;;;5062457;28;20024;-49
2023/02/05 13:29:28;;;;;;;1.35;1.20;;;;;;;;;;5045116;28;20044;-48
2023/02/05 13:31:55;;;;;;;3.15;1.60;;;;;;;;;;5061867;28;20040;-51
2023/02/05 13:34:22;;;;;;;2.97;1.67;;;;;;;;;;5064581;28;20358;-53
2023/02/05 13:36:55;;;;;;;2.35;1.50;;;;;;;;;;5064052;28;20539;-48
2023/02/05 13:39:37;;;;;;;2.83;1.60;;;;;;;;;;5064594;28;20040;-51
2023/02/05 13:42:10;;;;;;;2.85;1.60;;;;;;;;;;5064868;28;20107;-49
2023/02/05 13:44:39;;;;;;;1.37;1.27;;;;;;;;;;5063587;28;20059;-49
2023/02/05 13:47:31;;;;;;;2.00;1.40;;;;;;;;;;5064659;28;20012;-51
2023/02/05 13:50:16;;;;;;;1.45;1.35;;;;;;;;;;5032126;28;20044;-50
2023/02/05 13:52:48;;;;;;;2.38;1.55;;;;;;;;;;5064230;28;20514;-50
2023/02/05 13:55:17;;;;;;;1.52;1.38;;;;;;;;;;5063823;28;20036;-49
2023/02/05 13:58:19;;;;;;;2.38;1.52;;;;;;;;;;5061064;28;20428;-49
2023/02/05 14:00:50;;;;;;;3.30;1.40;;;;;;;;;;5007164;28;20153;-50
2023/02/05 14:03:25;;;;;;;1.85;1.40;;;;;;;;;;5057208;28;20411;-49
2023/02/05 14:05:51;;;;;;;2.70;1.30;;;;;;;;;;5061080;28;20036;-49
2023/02/05 14:08:25;;;;;;;2.47;1.90;;;;;;;;;;5063061;28;20024;-48
2023/02/05 14:11:00;;;;;;;3.33;2.00;;;;;;;;;;5062871;28;20035;-52
2023/02/05 14:13:31;;;;;;;3.78;2.70;;;;;;;;;;5057754;28;20032;-48
2023/02/05 14:15:57;;;;;;;6.30;3.55;;;;;;;;;;5049589;28;20039;-52
2023/02/05 14:18:44;;;;;;;5.35;3.42;;;;;;;;;;5061439;28;20518;-52
2023/02/05 14:21:29;;;;;;;5.30;3.58;;;;;;;;;;5053072;28;20209;-51
2023/02/05 14:23:55;;;;;;;;;;;;;;;;;;5064050;28;20029;-50
2023/02/05 14:26:40;;;;;;;3.90;3.00;;;;;;;;;;5062928;28;20359;-50
2023/02/05 14:29:26;;;;;;;5.10;3.22;;;;;;;;;;5060331;28;20024;-50
2023/02/05 14:31:52;;;;;;;4.63;2.63;;;;;;;;;;5060594;28;20337;-48
2023/02/05 14:34:27;;;;;;;3.58;2.55;;;;;;;;;;5063910;28;20086;-49
2023/02/05 14:36:53;;;;;;;6.07;4.38;;;;;;;;;;5063624;28;20473;-51
2023/02/05 14:39:25;;;;;;;5.72;3.63;;;;;;;;;;5063038;28;20404;-51
2023/02/05 14:41:53;;;;;;;7.03;4.00;;;;;;;;;;5043883;28;20098;-52
2023/02/05 14:44:22;;;;;;;8.32;4.65;;;;;;;;;;5045221;28;20021;-52
2023/02/05 14:47:00;;;;;;;8.43;5.40;;;;;;;;;;5044505;28;20401;-52
2023/02/05 14:49:28;;;;;;;6.90;4.78;;;;;;;;;;5042162;28;20068;-50
2023/02/05 14:51:59;;;;;;;6.57;4.18;;;;;;;;;;5051802;28;20173;-48
2023/02/05 14:54:26;;;;;;;5.80;3.85;;;;;;;;;;5062335;28;20028;-49
2023/02/05 14:56:54;;;;;;;5.85;3.15;;;;;;;;;;5062761;28;20035;-52
2023/02/05 14:59:28;;;;;;;3.80;2.72;;;;;;;;;;5062075;28;20032;-49
2023/02/05 15:01:54;;;;;;;3.67;2.85;;;;;;;;;;5062325;28;20040;-47
2023/02/05 15:04:32;;;;;;;5.75;3.00;;;;;;;;;;5063331;28;20025;-50
2023/02/05 15:07:00;;;;;;;2.22;2.03;;;;;;;;;;5065389;28;20137;-48
2023/02/05 15:09:37;;;;;;;4.45;2.70;;;;;;;;;;5066571;28;20036;-53
2023/02/05 15:12:22;;;;;;;4.68;2.50;;;;;;;;;;5066849;28;20097;-48
2023/02/05 15:14:48;;;;;;;;;;;;;;;;;;5068479;28;20089;-49
2023/02/05 15:17:15;;;;;;;5.90;2.28;;;;;;;;;;5066923;28;20003;-48
2023/02/05 15:19:51;;;;;;;2.85;2.20;;;;;;;;;;5065278;28;20411;-51
2023/02/05 15:22:23;;;;;;;5.60;3.60;;;;;;;;;;5067515;28;20035;-48
2023/02/05 15:24:52;;;;;;;5.40;3.30;;;;;;;;;;5067211;28;20111;-49
2023/02/05 15:27:22;;;;;;;3.83;2.97;;;;;;;;;;5067187;28;20023;-47
2023/02/05 15:29:49;;;;;;;2.95;2.20;;;;;;;;;;5067930;28;20020;-48
2023/02/05 15:32:26;;;;;;;3.25;1.80;;;;;;;;;;5067091;28;20187;-47
2023/02/05 15:34:54;;;;;;;3.38;1.73;;;;;;;;;;5064200;28;20036;-47
2023/02/05 15:37:23;;;;;;;2.33;1.60;;;;;;;;;;5067048;28;20037;-45
2023/02/05 15:39:58;;;;;;;2.47;1.80;;;;;;;;;;5066751;28;20039;-47
2023/02/05 15:42:29;;;;;;;2.80;1.90;;;;;;;;;;5047090;28;20061;-49
2023/02/05 15:44:55;;;;;;;2.80;1.83;;;;;;;;;;5047094;28;20032;-50
2023/02/05 15:47:23;;;;;;;1.73;1.52;;;;;;;;;;5066343;28;20032;-47
2023/02/05 15:49:56;;;;;;;2.53;1.73;;;;;;;;;;5065027;28;20028;-48
2023/02/05 15:52:29;;;;;;;2.15;1.50;;;;;;;;;;5066777;28;20021;-48
2023/02/05 15:54:57;;;;;;;2.13;1.30;;;;;;;;;;5065829;28;20093;-47
2023/02/05 15:57:25;;;;;;;2.28;1.40;;;;;;;;;;5065842;28;20040;-49
2023/02/05 15:59:52;;;;;;;2.17;1.30;;;;;;;;;;5065803;28;20064;-44
2023/02/05 16:02:22;;;;;;;2.72;1.40;;;;;;;;;;5065699;28;20152;-49
2023/02/05 16:04:57;;;;;;;2.00;1.40;;;;;;;;;;5059367;28;20032;-47
2023/02/05 16:07:22;;;;;;;;;;;;;;;;;;5063950;28;20320;-46
2023/02/05 16:09:51;;;;;;;3.20;1.42;;;;;;;;;;5066490;28;20368;-48
2023/02/05 16:12:17;;;;;;;1.38;1.20;;;;;;;;;;5063489;28;20028;-48
2023/02/05 16:14:43;;;;;;;1.25;1.00;;;;;;;;;;5066154;28;20534;-45
2023/02/05 16:17:09;;;;;;;1.35;1.10;;;;;;;;;;5065525;28;20032;-45
2023/02/05 16:19:36;;;;;;;1.42;1.17;;;;;;;;;;5065842;28;20116;-48
2023/02/05 16:22:17;;;;;;;1.25;1.08;;;;;;;;;;5065235;28;20056;-47
2023/02/05 16:24:47;;;;;;;2.17;1.20;;;;;;;;;;5064240;28;20033;-47
2023/02/05 16:27:19;;;;;;;2.33;1.45;;;;;;;;;;5065600;28;20043;-45
2023/02/05 16:29:49;;;;;;;1.30;0.90;;;;;;;;;;5065877;28;20032;-44
2023/02/05 16:32:21;;;;;;;1.67;1.13;;;;;;;;;;5063538;28;20035;-45
2023/02/05 16:34:47;;;;;;;2.13;1.00;;;;;;;;;;5066493;28;20036;-45
2023/02/05 16:37:15;;;;;;;1.42;1.00;;;;;;;;;;5066778;28;20086;-46
2023/02/05 16:39:52;;;;;;;1.95;1.20;;;;;;;;;;5066840;28;20071;-44
2023/02/05 16:42:25;;;;;;;1.77;1.13;;;;;;;;;;5070273;28;20051;-48
2023/02/05 16:45:02;;;;;;;1.50;1.25;;;;;;;;;;5069635;28;20528;-45
2023/02/05 16:47:28;;;;;;;1.35;1.25;;;;;;;;;;5063620;28;20028;-47
2023/02/05 16:49:54;;;;;;;2.67;1.20;;;;;;;;;;5066307;28;20395;-48
2023/02/05 16:52:29;;;;;;;2.28;1.77;;;;;;;;;;5067237;28;20039;-45
2023/02/05 16:54:56;;;;;;;2.60;1.50;;;;;;;;;;5064489;28;20379;-47
2023/02/05 16:57:33;;;;;;;2.55;1.38;;;;;;;;;;5064720;28;20527;-46
2023/02/05 17:00:07;;;;;;;3.92;1.73;;;;;;;;;;5065194;28;20046;-49
2023/02/05 17:02:34;;;;;;;;;;;;;;;;;;5066907;28;20027;-45
2023/02/05 17:05:01;;;;;;;2.45;1.42;;;;;;;;;;5066354;28;19961;-48
2023/02/05 17:07:28;;;;;;;2.30;1.80;;;;;;;;;;5064258;28;20031;-48
2023/02/05 17:10:04;;;;;;;2.72;1.45;;;;;;;;;;5065965;28;20038;-47
2023/02/05 17:12:33;;;;;;;2.15;1.63;;;;;;;;;;5065859;28;20514;-47
2023/02/05 17:15:01;;;;;;;2.45;1.58;;;;;;;;;;5066232;28;20111;-48
2023/02/05 17:17:28;;;;;;;1.92;1.70;;;;;;;;;;5066315;28;20082;-48
2023/02/05 17:20:13;;;;;;;2.85;1.77;;;;;;;;;;5064316;28;20067;-44
2023/02/05 17:22:39;;;;;;;3.15;2.17;;;;;;;;;;5066629;28;20028;-48
2023/02/05 17:25:05;;;;;;;2.00;1.80;;;;;;;;;;5064813;28;20578;-49
2023/02/05 17:27:40;;;;;;;1.83;1.50;;;;;;;;;;5063446;28;20077;-47
2023/02/05 17:30:13;;;;;;;2.08;1.70;;;;;;;;;;5064985;28;20162;-45
2023/02/05 17:32:39;;;;;;;2.55;1.75;;;;;;;;;;5064505;28;20056;-48
2023/02/05 17:35:23;;;;;;;2.00;1.80;;;;;;;;;;5064931;28;20086;-48
2023/02/05 17:37:50;;;;;;;2.40;1.70;;;;;;;;;;5065779;28;20059;-45
2023/02/05 17:40:16;;;;;;;2.60;1.90;;;;;;;;;;5063918;28;20438;-47
2023/02/05 17:42:42;;;;;;;3.17;1.63;;;;;;;;;;5062450;28;20214;-48
2023/02/05 17:45:14;;;;;;;2.70;2.13;;;;;;;;;;5063632;28;20099;-48
2023/02/05 17:47:42;;;;;;;2.53;1.83;;;;;;;;;;5063791;28;20035;-48
2023/02/05 17:50:09;;;;;;;3.03;2.05;;;;;;;;;;5063488;28;20162;-45
2023/02/05 17:52:34;;;;;;;2.08;1.70;;;;;;;;;;5064477;28;20429;-48
2023/02/05 17:55:01;;;;;;;2.50;1.95;;;;;;;;;;5063491;28;20055;-48
2023/02/05 17:57:27;;;;;;;2.85;2.22;;;;;;;;;;5064477;28;20037;-49
2023/02/05 17:59:55;;;;;;;3.08;2.10;;;;;;;;;;5062587;28;20039;-48
2023/02/05 18:02:22;;;;;;;3.10;2.60;;;;;;;;;;5064530;28;20646;-49
2023/02/05 18:04:48;;;;;;;4.75;3.63;;;;;;;;;;5062933;28;20067;-47
2023/02/05 18:07:17;;;;;;;4.60;2.88;;;;;;;;;;5063281;28;20060;-47
2023/02/05 18:09:43;;;;;;;4.53;2.92;;;;;;;;;;5062801;28;20090;-48
2023/02/05 18:12:09;;;;;;;4.00;2.70;;;;;;;;;;5052088;28;20036;-47
2023/02/05 18:14:35;;;;;;;4.72;3.03;;;;;;;;;;5052242;28;20027;-47
2023/02/05 18:17:01;;;;;;;5.03;3.63;;;;;;;;;;5061673;28;20037;-49
2023/02/05 18:19:28;;;;;;;5.32;3.60;;;;;;;;;;5061288;28;20530;-50
2023/02/05 18:21:54;;;;;;;3.80;3.03;;;;;;;;;;5063034;28;20630;-49
2023/02/05 18:24:20;;;;;;;4.63;2.90;;;;;;;;;;5064601;28;20387;-48
2023/02/05 18:26:51;;;;;;;3.58;2.60;;;;;;;;;;5063581;28;20043;-51
2023/02/05 18:29:17;;;;;;;3.30;2.53;;;;;;;;;;5062942;28;20029;-48
2023/02/05 18:31:43;;;;;;;2.65;2.33;;;;;;;;;;5063852;28;20131;-49
2023/02/05 18:34:09;;;;;;;2.72;2.28;;;;;;;;;;5064038;28;20526;-47
2023/02/05 18:36:35;;;;;;;3.33;1.92;;;;;;;;;;5063426;28;20021;-49
2023/02/05 18:39:01;;;;;;;2.55;2.10;;;;;;;;;;5043670;28;20495;-47
2023/02/05 18:41:27;;;;;;;2.78;2.03;;;;;;;;;;5051865;28;20028;-48
2023/02/05 18:43:55;;;;;;;4.30;2.38;;;;;;;;;;5067977;28;20032;-49
2023/02/05 18:46:21;;;;;;;3.08;2.10;;;;;;;;;;5067820;28;20280;-47
2023/02/05 18:48:50;;;;;;;2.33;1.80;;;;;;;;;;5066918;28;20036;-49
2023/02/05 18:51:18;;;;;;;3.70;2.20;;;;;;;;;;5065163;28;20030;-51
2023/02/05 18:53:44;;;;;;;2.25;1.70;;;;;;;;;;5066914;28;20032;-49
2023/02/05 18:56:15;;;;;;;3.05;1.70;;;;;;;;;;5067157;28;20032;-49
2023/02/05 18:58:41;;;;;;;3.20;2.13;;;;;;;;;;5067030;28;20480;-47
2023/02/05 19:01:11;;;;;;;3.05;1.70;;;;;;;;;;5066712;28;20540;-49
2023/02/05 19:03:37;;;;;;;2.35;1.50;;;;;;;;;;5065435;28;20039;-50
2023/02/05 19:06:07;;;;;;;2.75;1.83;;;;;;;;;;5066072;28;20062;-49
2023/02/05 19:08:34;;;;;;;2.63;1.80;;;;;;;;;;5064499;28;20263;-50
2023/02/05 19:11:05;;;;;;;2.30;1.67;;;;;;;;;;5066418;28;20031;-49
2023/02/05 19:13:31;;;;;;;2.05;1.58;;;;;;;;;;5066189;28;20029;-47
2023/02/05 19:16:02;;;;;;;1.58;1.23;;;;;;;;;;5064586;28;20044;-50
2023/02/05 19:18:30;;;;;;;2.42;1.45;;;;;;;;;;5066555;28;20033;-47
2023/02/05 19:21:02;;;;;;;2.08;1.30;;;;;;;;;;5066118;28;20389;-50
2023/02/05 19:23:28;;;;;;;1.45;1.35;;;;;;;;;;5064562;28;20028;-49
2023/02/05 19:25:54;;;;;;;1.13;1.00;;;;;;;;;;5063658;28;20567;-48
2023/02/05 19:28:21;;;;;;;2.42;1.45;;;;;;;;;;5067195;28;20032;-48
2023/02/05 19:30:48;;;;;;;2.95;1.80;;;;;;;;;;5066771;28;20111;-48
2023/02/05 19:33:14;;;;;;;2.38;1.77;;;;;;;;;;5066569;28;20081;-48
2023/02/05 19:35:41;;;;;;;2.97;2.03;;;;;;;;;;5065036;28;20021;-50
2023/02/05 19:38:08;;;;;;;2.75;1.83;;;;;;;;;;5065470;28;20542;-49
2023/02/05 19:40:35;;;;;;;3.22;2.10;;;;;;;;;;5066461;28;20388;-51
2023/02/05 19:43:01;;;;;;;4.00;1.95;;;;;;;;;;5066137;28;20020;-49
2023/02/05 19:45:28;;;;;;;2.45;1.75;;;;;;;;;;5065295;28;20065;-50
2023/02/05 19:47:54;;;;;;;2.03;1.70;;;;;;;;;;5065741;28;20032;-48
2023/02/05 19:50:20;;;;;;;2.50;1.58;;;;;;;;;;5065840;28;20138;-48
2023/02/05 19:52:47;;;;;;;2.13;1.63;;;;;;;;;;5064602;28;20123;-51
2023/02/05 19:55:12;;;;;;;1.67;1.55;;;;;;;;;;5066045;28;20045;-49
2023/02/05 19:57:39;;;;;;;1.98;1.48;;;;;;;;;;5065827;28;20017;-48
2023/02/05 20:00:05;;;;;;;2.25;1.35;;;;;;;;;;5065501;28;20102;-50
2023/02/05 20:02:34;;;;;;;2.78;1.67;;;;;;;;;;5065118;28;20017;-50
2023/02/05 20:05:01;;;;;;;2.70;1.63;;;;;;;;;;5066405;28;20171;-49
2023/02/05 20:07:27;;;;;;;2.00;1.38;;;;;;;;;;5064156;28;20028;-49
2023/02/05 20:09:53;;;;;;;2.10;1.45;;;;;;;;;;5066583;28;20511;-51
2023/02/05 20:12:19;;;;;;;1.98;1.50;;;;;;;;;;5064146;28;20063;-47
2023/02/05 20:14:45;;;;;;;2.17;1.30;;;;;;;;;;5066520;28;20491;-49
2023/02/05 20:17:15;;;;;;;1.67;1.58;;;;;;;;;;5065641;28;20040;-49